createdAt,value
2023-03-21T00:00:33.383Z,81.58
2023-03-21T00:03:01.628Z,81.17
2023-03-21T00:05:29.986Z,81.33
2023-03-21T00:07:59.503Z,81.43
2023-03-21T00:10:39.513Z,81.83
2023-03-21T00:13:09.193Z,81.82
2023-03-21T00:16:03.984Z,82.05
2023-03-21T00:18:36.769Z,82.27
2023-03-21T00:21:37.559Z,82.29
2023-03-21T00:23:55.260Z,82.19
2023-03-21T00:26:23.664Z,82.72
2023-03-21T00:28:52.157Z,82.22
2023-03-21T00:31:23.211Z,82.38
2023-03-21T00:33:51.471Z,82.74
2023-03-21T00:36:19.516Z,83.15
2023-03-21T00:38:47.469Z,82.72
2023-03-21T00:41:26.391Z,82.36
2023-03-21T00:44:04.154Z,82.53
2023-03-21T00:46:45.206Z,82.87
2023-03-21T00:49:15.070Z,82.78
2023-03-21T00:51:43.732Z,83.19
2023-03-21T00:54:13.575Z,83.24
2023-03-21T00:56:42.333Z,83.20
2023-03-21T00:59:11.150Z,82.79
2023-03-21T01:01:40.477Z,82.82
2023-03-21T01:04:13.652Z,83.58
2023-03-21T01:06:43.607Z,83.43
2023-03-21T01:09:14.724Z,83.17
2023-03-21T01:11:43.200Z,83.22
2023-03-21T01:14:23.283Z,82.77
2023-03-21T01:16:54.069Z,83.21
2023-03-21T01:19:40.701Z,83.61
2023-03-21T01:22:12.820Z,84.05
2023-03-21T01:24:52.400Z,83.62
2023-03-21T01:27:22.398Z,83.64
2023-03-21T01:29:50.581Z,83.14
2023-03-21T01:32:19.860Z,83.07
2023-03-21T01:34:47.846Z,83.26
2023-03-21T01:37:17.773Z,82.94
2023-03-21T01:39:49.456Z,83.24
2023-03-21T01:42:17.446Z,83.62
2023-03-21T01:44:55.457Z,83.85
2023-03-21T01:47:25.819Z,82.85
2023-03-21T01:50:06.262Z,83.16
2023-03-21T01:52:53.096Z,83.30
2023-03-21T01:55:29.522Z,83.58
2023-03-21T01:58:32.003Z,83.89
2023-03-21T02:01:23.816Z,84.05
2023-03-21T02:03:57.375Z,84.15
2023-03-21T02:06:52.111Z,83.88
2023-03-21T02:09:49.920Z,84.23
2023-03-21T02:12:21.685Z,84.30
2023-03-21T02:14:51.925Z,84.78
2023-03-21T02:17:42.420Z,84.66
2023-03-21T02:20:51.195Z,85.12
2023-03-21T02:23:54.634Z,85.40
2023-03-21T02:26:52.472Z,84.67
2023-03-21T02:29:57.919Z,84.18
2023-03-21T02:32:41.532Z,84.17
2023-03-21T02:35:39.120Z,83.80
2023-03-21T02:38:18.377Z,84.56
2023-03-21T02:40:54.678Z,84.25
2023-03-21T02:43:35.281Z,84.15
2023-03-21T02:46:08.303Z,84.02
2023-03-21T02:48:50.199Z,83.78
2023-03-21T02:51:23.497Z,84.25
2023-03-21T02:54:24.639Z,84.48
2023-03-21T02:56:47.191Z,84.80
2023-03-21T02:59:17.511Z,84.91
2023-03-21T03:01:46.100Z,84.61
2023-03-21T03:04:22.116Z,84.79
2023-03-21T03:07:09.589Z,85.42
2023-03-21T03:09:53.043Z,85.20
2023-03-21T03:12:31.042Z,84.90
2023-03-21T03:15:09.903Z,85.21
2023-03-21T03:17:49.516Z,85.57
2023-03-21T03:20:28.197Z,85.71
2023-03-21T03:23:06.245Z,85.75
2023-03-21T03:25:43.428Z,85.63
2023-03-21T03:28:18.049Z,85.51
2023-03-21T03:31:01.141Z,85.88
2023-03-21T03:33:41.499Z,85.82
2023-03-21T03:36:25.051Z,85.47
2023-03-21T03:39:04.668Z,85.82
2023-03-21T03:42:04.166Z,85.66
2023-03-21T03:44:33.849Z,86.27
2023-03-21T03:47:10.573Z,85.69
2023-03-21T03:49:44.078Z,85.35
2023-03-21T03:52:19.934Z,85.32
2023-03-21T03:54:53.886Z,85.55
2023-03-21T03:57:27.364Z,85.70
2023-03-21T03:59:57.030Z,85.93
2023-03-21T04:02:45.291Z,85.96
2023-03-21T04:05:21.479Z,86.08
2023-03-21T04:07:50.879Z,86.18
2023-03-21T04:10:22.681Z,85.50
2023-03-21T04:12:52.102Z,85.88
2023-03-21T04:15:28.758Z,85.92
2023-03-21T04:18:04.792Z,85.57
2023-03-21T04:20:37.406Z,86.05
2023-03-21T04:23:07.729Z,86.26
2023-03-21T04:25:38.614Z,85.56
2023-03-21T04:28:09.944Z,85.75
2023-03-21T04:30:58.753Z,86.00
2023-03-21T04:33:29.281Z,85.98
2023-03-21T04:35:59.136Z,85.88
2023-03-21T04:38:30.875Z,86.08
2023-03-21T04:41:03.285Z,86.52
2023-03-21T04:43:33.207Z,86.12
2023-03-21T04:46:01.176Z,85.89
2023-03-21T04:48:29.344Z,85.68
2023-03-21T04:50:57.861Z,86.25
2023-03-21T04:53:25.864Z,86.33
2023-03-21T04:55:55.573Z,86.26
2023-03-21T04:58:24.155Z,85.93
2023-03-21T05:00:53.600Z,85.79
2023-03-21T05:03:22.070Z,86.38
2023-03-21T05:05:50.883Z,86.29
2023-03-21T05:08:20.129Z,86.37
2023-03-21T05:10:48.319Z,86.25
2023-03-21T05:13:16.397Z,86.62
2023-03-21T05:15:44.297Z,86.70
2023-03-21T05:18:13.680Z,86.34
2023-03-21T05:21:00.079Z,86.54
2023-03-21T05:23:31.819Z,86.30
2023-03-21T05:26:00.087Z,86.83
2023-03-21T05:28:40.944Z,86.47
2023-03-21T05:31:10.008Z,86.85
2023-03-21T05:33:39.331Z,86.37
2023-03-21T05:36:08.063Z,86.49
2023-03-21T05:38:36.046Z,87.06
2023-03-21T05:41:05.377Z,86.53
2023-03-21T05:43:33.605Z,86.81
2023-03-21T05:46:01.887Z,86.54
2023-03-21T05:48:32.391Z,86.74
2023-03-21T05:51:11.210Z,86.21
2023-03-21T05:53:39.377Z,86.07
2023-03-21T05:56:08.906Z,86.26
2023-03-21T05:58:59.614Z,86.42
2023-03-21T06:01:28.230Z,86.03
2023-03-21T06:04:08.686Z,85.72
2023-03-21T06:06:38.759Z,85.82
2023-03-21T06:09:06.799Z,85.86
2023-03-21T06:11:37.139Z,86.21
2023-03-21T06:14:28.297Z,86.43
2023-03-21T06:17:10.470Z,86.30
2023-03-21T06:19:44.714Z,86.40
2023-03-21T06:22:20.552Z,86.73
2023-03-21T06:24:48.721Z,86.32
2023-03-21T06:27:19.562Z,86.58
2023-03-21T06:29:54.129Z,86.37
2023-03-21T06:32:23.129Z,86.42
2023-03-21T06:34:56.281Z,85.99
2023-03-21T06:37:26.907Z,86.29
2023-03-21T06:39:55.720Z,86.32
2023-03-21T06:42:24.563Z,86.63
2023-03-21T06:44:57.390Z,86.22
2023-03-21T06:47:25.381Z,85.84
2023-03-21T06:49:53.262Z,85.73
2023-03-21T06:52:21.261Z,85.52
2023-03-21T06:54:52.062Z,85.81
2023-03-21T06:57:22.018Z,86.00
2023-03-21T06:59:51.115Z,85.37
2023-03-21T07:02:21.681Z,85.64
2023-03-21T07:05:02.334Z,86.44
2023-03-21T07:07:32.003Z,85.79
2023-03-21T07:10:01.332Z,84.90
2023-03-21T07:12:35.871Z,84.74
2023-03-21T07:15:25.020Z,85.51
2023-03-21T07:17:53.173Z,85.21
2023-03-21T07:20:21.142Z,85.27
2023-03-21T07:22:50.064Z,84.23
2023-03-21T07:25:20.578Z,84.12
2023-03-21T07:27:49.433Z,84.72
2023-03-21T07:30:17.870Z,84.38
2023-03-21T07:32:47.716Z,83.96
2023-03-21T07:35:18.630Z,84.30
2023-03-21T07:37:46.655Z,84.31
2023-03-21T07:40:17.478Z,83.90
2023-03-21T07:42:49.844Z,82.61
2023-03-21T07:45:28.938Z,83.04
2023-03-21T07:47:56.890Z,82.56
2023-03-21T07:50:25.157Z,81.91
2023-03-21T07:52:53.085Z,81.93
2023-03-21T07:55:21.411Z,81.20
2023-03-21T07:57:52.722Z,80.92
2023-03-21T08:00:23.846Z,80.84
2023-03-21T08:02:57.939Z,81.22
2023-03-21T08:05:29.267Z,81.24
2023-03-21T08:07:57.366Z,81.57
2023-03-21T08:10:25.344Z,80.82
2023-03-21T08:12:54.863Z,79.64
2023-03-21T08:15:23.122Z,79.14
2023-03-21T08:17:51.117Z,77.98
2023-03-21T08:20:22.029Z,78.31
2023-03-21T08:22:50.904Z,78.30
2023-03-21T08:25:20.319Z,77.86
2023-03-21T08:27:48.484Z,78.15
2023-03-21T08:30:19.932Z,77.26
2023-03-21T08:32:48.115Z,77.80
2023-03-21T08:35:18.856Z,77.68
2023-03-21T08:37:47.027Z,77.77
2023-03-21T08:40:17.011Z,77.50
2023-03-21T08:42:46.546Z,78.25
2023-03-21T08:45:16.122Z,78.32
2023-03-21T08:47:45.873Z,78.48
2023-03-21T08:50:16.361Z,79.45
2023-03-21T08:52:44.365Z,79.34
2023-03-21T08:55:13.742Z,78.61
2023-03-21T08:57:41.798Z,78.76
2023-03-21T09:00:14.666Z,77.39
2023-03-21T09:02:43.828Z,77.20
2023-03-21T09:05:13.705Z,75.77
2023-03-21T09:07:42.849Z,75.73
2023-03-21T09:10:22.182Z,75.82
2023-03-21T09:12:51.691Z,75.91
2023-03-21T09:15:21.821Z,75.72
2023-03-21T09:17:52.556Z,74.86
2023-03-21T09:20:30.491Z,74.06
2023-03-21T09:22:58.797Z,74.42
2023-03-21T09:25:31.378Z,74.90
2023-03-21T09:28:00.379Z,73.84
2023-03-21T09:30:28.708Z,73.16
2023-03-21T09:32:56.989Z,72.52
2023-03-21T09:35:27.125Z,71.90
2023-03-21T09:37:58.994Z,71.41
2023-03-21T09:40:41.570Z,70.61
2023-03-21T09:43:21.935Z,71.19
2023-03-21T09:45:56.167Z,71.08
2023-03-21T09:48:39.675Z,73.05
2023-03-21T09:51:18.035Z,71.08
2023-03-21T09:53:50.151Z,70.35
2023-03-21T09:56:19.172Z,69.71
2023-03-21T09:58:53.102Z,69.21
2023-03-21T10:01:28.378Z,68.83
2023-03-21T10:03:58.968Z,68.56
2023-03-21T10:06:30.572Z,68.06
2023-03-21T10:09:01.807Z,68.13
2023-03-21T10:14:06.866Z,67.47
2023-03-21T10:16:38.603Z,67.00
2023-03-21T10:19:13.004Z,67.05
2023-03-21T10:22:03.328Z,65.93
2023-03-21T10:24:34.541Z,66.29
2023-03-21T10:27:04.528Z,66.04
2023-03-21T10:29:38.056Z,65.00
2023-03-21T10:32:09.786Z,65.30
2023-03-21T10:34:41.816Z,66.55
2023-03-21T10:37:14.008Z,65.52
2023-03-21T10:39:44.639Z,64.37
2023-03-21T10:42:20.319Z,63.65
2023-03-21T10:44:49.916Z,63.80
2023-03-21T10:47:22.103Z,64.75
2023-03-21T10:50:06.885Z,64.72
2023-03-21T10:52:39.315Z,65.52
2023-03-21T10:55:19.120Z,65.38
2023-03-21T10:57:47.936Z,65.46
2023-03-21T11:00:22.542Z,66.95
2023-03-21T11:02:52.768Z,64.84
2023-03-21T11:05:24.090Z,64.07
2023-03-21T11:08:01.489Z,62.55
2023-03-21T11:10:32.528Z,62.03
2023-03-21T11:13:06.503Z,61.09
2023-03-21T11:15:42.406Z,61.05
2023-03-21T11:18:20.800Z,59.92
2023-03-21T11:20:54.484Z,61.23
2023-03-21T11:23:28.115Z,60.16
2023-03-21T11:25:58.300Z,61.23
2023-03-21T11:28:33.302Z,60.88
2023-03-21T11:31:03.515Z,61.35
2023-03-21T11:33:35.583Z,61.66
2023-03-21T11:36:06.052Z,61.09
2023-03-21T11:38:38.913Z,61.33
2023-03-21T11:41:07.617Z,60.74
2023-03-21T11:43:37.721Z,61.03
2023-03-21T11:46:11.029Z,62.33
2023-03-21T11:48:42.472Z,62.53
2023-03-21T11:51:22.391Z,63.99
2023-03-21T11:54:01.092Z,62.43
2023-03-21T11:56:33.332Z,62.33
2023-03-21T11:59:15.989Z,61.19
2023-03-21T12:01:57.290Z,61.95
2023-03-21T12:04:42.394Z,59.23
2023-03-21T12:07:40.422Z,60.23
2023-03-21T12:10:28.237Z,61.66
2023-03-21T12:13:06.505Z,58.82
2023-03-21T12:15:40.718Z,55.29
2023-03-21T12:18:35.227Z,54.33
2023-03-21T12:21:08.125Z,55.61
2023-03-21T12:23:55.938Z,53.14
2023-03-21T12:26:28.231Z,53.05
2023-03-21T12:29:27.977Z,49.97
2023-03-21T12:32:06.107Z,51.28
2023-03-21T12:34:58.749Z,51.41
2023-03-21T12:37:38.256Z,51.17
2023-03-21T12:40:18.448Z,51.34
2023-03-21T12:43:20.738Z,49.24
2023-03-21T12:45:53.247Z,50.10
2023-03-21T12:48:28.977Z,51.55
2023-03-21T12:51:02.170Z,51.05
2023-03-21T12:53:53.099Z,51.92
2023-03-21T12:56:24.900Z,52.03
2023-03-21T12:58:59.000Z,51.95
2023-03-21T13:01:31.452Z,52.70
2023-03-21T13:04:10.589Z,50.07
2023-03-21T13:06:39.718Z,51.23
2023-03-21T13:09:16.067Z,48.99
2023-03-21T13:11:46.914Z,50.95
2023-03-21T13:14:20.404Z,50.46
2023-03-21T13:16:56.110Z,49.70
2023-03-21T13:19:31.091Z,50.92
2023-03-21T13:22:08.126Z,49.37
2023-03-21T13:24:43.731Z,49.02
2023-03-21T13:27:24.829Z,48.14
2023-03-21T13:29:55.391Z,48.99
2023-03-21T13:32:31.099Z,48.16
2023-03-21T13:35:01.916Z,48.01
2023-03-21T13:37:33.821Z,46.35
2023-03-21T13:40:09.356Z,46.49
2023-03-21T13:42:45.086Z,45.29
2023-03-21T13:45:23.757Z,46.92
2023-03-21T13:47:57.554Z,47.05
2023-03-21T13:50:36.537Z,46.38
2023-03-21T13:53:39.055Z,44.21
2023-03-21T13:56:22.075Z,46.36
2023-03-21T13:58:55.585Z,45.99
2023-03-21T14:01:29.191Z,46.09
2023-03-21T14:04:07.433Z,45.87
2023-03-21T14:06:42.847Z,46.71
2023-03-21T14:09:16.082Z,45.19
2023-03-21T14:11:47.066Z,44.86
2023-03-21T14:14:15.869Z,45.51
2023-03-21T14:16:45.578Z,45.29
2023-03-21T14:19:14.977Z,45.67
2023-03-21T14:21:50.389Z,44.93
2023-03-21T14:24:19.575Z,45.31
2023-03-21T14:26:50.387Z,44.46
2023-03-21T14:29:26.584Z,44.32
2023-03-21T14:31:56.258Z,45.28
2023-03-21T14:34:28.299Z,45.67
2023-03-21T14:36:58.686Z,45.11
2023-03-21T14:39:29.894Z,45.41
2023-03-21T14:42:03.460Z,45.74
2023-03-21T14:44:44.209Z,45.69
2023-03-21T14:47:22.863Z,45.94
2023-03-21T14:49:52.374Z,46.06
2023-03-21T14:52:24.990Z,45.45
2023-03-21T14:54:54.419Z,45.25
2023-03-21T14:57:26.187Z,45.39
2023-03-21T14:59:56.185Z,45.89
2023-03-21T15:02:27.572Z,45.08
2023-03-21T15:04:59.250Z,44.65
2023-03-21T15:07:30.358Z,44.86
2023-03-21T15:10:02.078Z,46.11
2023-03-21T15:12:30.013Z,46.82
2023-03-21T15:14:58.270Z,46.45
2023-03-21T15:17:27.509Z,46.47
2023-03-21T15:19:56.824Z,47.24
2023-03-21T15:22:31.787Z,47.62
2023-03-21T15:25:02.908Z,48.10
2023-03-21T15:27:34.175Z,47.47
2023-03-21T15:30:02.202Z,48.30
2023-03-21T15:32:30.464Z,48.30
2023-03-21T15:35:08.111Z,47.91
2023-03-21T15:37:38.029Z,47.63
2023-03-21T15:40:11.440Z,47.99
2023-03-21T15:42:41.329Z,48.18
2023-03-21T15:45:18.113Z,48.27
2023-03-21T15:47:54.261Z,48.66
2023-03-21T15:50:35.502Z,48.99
2023-03-21T15:53:07.669Z,48.97
2023-03-21T15:55:43.624Z,48.78
2023-03-21T15:58:18.122Z,48.85
2023-03-21T16:00:54.733Z,48.94
2023-03-21T16:03:27.287Z,48.93
2023-03-21T16:06:11.039Z,47.97
2023-03-21T16:08:44.656Z,48.67
2023-03-21T16:11:18.882Z,48.48
2023-03-21T16:13:46.951Z,48.85
2023-03-21T16:16:17.969Z,49.15
2023-03-21T16:18:45.978Z,48.02
2023-03-21T16:21:18.182Z,47.43
2023-03-21T16:23:46.358Z,47.75
2023-03-21T16:26:16.498Z,47.83
2023-03-21T16:28:45.003Z,48.01
2023-03-21T16:31:15.539Z,48.08
2023-03-21T16:33:44.010Z,48.00
2023-03-21T16:36:17.893Z,47.53
2023-03-21T16:38:47.025Z,47.46
2023-03-21T16:41:15.791Z,47.92
2023-03-21T16:43:44.038Z,48.67
2023-03-21T16:46:14.784Z,48.23
2023-03-21T16:48:43.653Z,48.79
2023-03-21T16:51:16.128Z,47.88
2023-03-21T16:53:44.179Z,48.32
2023-03-21T16:56:16.518Z,48.22
2023-03-21T16:58:44.869Z,48.89
2023-03-21T17:01:19.183Z,48.01
2023-03-21T17:03:47.769Z,48.66
2023-03-21T17:06:19.254Z,49.93
2023-03-21T17:08:47.887Z,48.84
2023-03-21T17:11:20.022Z,48.88
2023-03-21T17:13:48.514Z,49.49
2023-03-21T17:16:18.441Z,49.49
2023-03-21T17:18:46.632Z,49.32
2023-03-21T17:21:17.825Z,50.13
2023-03-21T17:23:46.164Z,50.44
2023-03-21T17:26:15.067Z,50.39
2023-03-21T17:28:43.118Z,50.89
2023-03-21T17:31:14.896Z,50.51
2023-03-21T17:33:43.151Z,50.15
2023-03-21T17:36:15.028Z,50.43
2023-03-21T17:38:45.853Z,50.20
2023-03-21T17:41:14.821Z,50.08
2023-03-21T17:43:42.851Z,50.42
2023-03-21T17:46:14.125Z,51.08
2023-03-21T17:48:42.237Z,52.15
2023-03-21T17:51:12.785Z,52.14
2023-03-21T17:53:40.776Z,52.29
2023-03-21T17:56:25.818Z,52.42
2023-03-21T17:58:54.224Z,52.49
2023-03-21T18:01:23.316Z,53.40
2023-03-21T18:03:51.432Z,52.33
2023-03-21T18:06:21.708Z,51.61
2023-03-21T18:08:51.120Z,51.96
2023-03-21T18:11:22.166Z,51.79
2023-03-21T18:13:50.173Z,51.85
2023-03-21T18:16:19.801Z,52.29
2023-03-21T18:18:47.830Z,52.85
2023-03-21T18:21:18.918Z,53.51
2023-03-21T18:23:48.654Z,54.75
2023-03-21T18:26:18.988Z,55.48
2023-03-21T18:29:34.246Z,55.79
2023-03-21T18:31:38.236Z,56.69
2023-03-21T18:34:06.211Z,56.86
2023-03-21T18:36:34.580Z,57.26
2023-03-21T18:39:05.084Z,57.28
2023-03-21T18:41:33.036Z,58.34
2023-03-21T18:44:14.826Z,58.42
2023-03-21T18:46:48.186Z,58.68
2023-03-21T18:52:05.551Z,59.19
2023-03-21T18:54:33.971Z,59.69
2023-03-21T18:59:52.038Z,60.43
2023-03-21T19:02:20.059Z,60.57
2023-03-21T19:04:47.988Z,60.83
2023-03-21T19:07:16.559Z,60.35
2023-03-21T19:10:09.409Z,59.19
2023-03-21T19:12:33.222Z,59.14
2023-03-21T19:15:02.505Z,58.29
2023-03-21T19:20:19.651Z,59.47
2023-03-21T19:22:47.972Z,60.21
2023-03-21T19:25:17.138Z,60.64
2023-03-21T19:27:45.769Z,60.93
2023-03-21T19:30:16.506Z,61.08
2023-03-21T19:32:45.027Z,61.19
2023-03-21T19:35:14.257Z,61.04
2023-03-21T19:37:42.307Z,61.51
2023-03-21T19:40:11.196Z,61.45
2023-03-21T19:42:39.326Z,61.63
2023-03-21T19:45:08.357Z,61.74
2023-03-21T19:47:37.670Z,61.83
2023-03-21T19:52:54.170Z,62.40
2023-03-21T19:55:22.107Z,62.51
2023-03-21T19:57:50.288Z,62.02
2023-03-21T20:00:21.021Z,62.10
2023-03-21T20:02:51.637Z,62.11
2023-03-21T20:05:20.567Z,62.35
2023-03-21T20:07:48.897Z,62.61
2023-03-21T20:10:16.864Z,62.83
2023-03-21T20:12:44.764Z,63.14
2023-03-21T20:15:19.137Z,63.45
2023-03-21T20:17:50.923Z,63.69
2023-03-21T20:20:19.835Z,63.49
2023-03-21T20:23:11.005Z,63.80
2023-03-21T20:25:43.125Z,63.95
2023-03-21T20:28:28.152Z,63.96
2023-03-21T20:31:00.281Z,64.36
2023-03-21T20:33:30.418Z,64.34
2023-03-21T20:38:51.433Z,64.52
2023-03-21T20:41:19.742Z,63.94
2023-03-21T20:44:28.490Z,64.01
2023-03-21T20:46:37.704Z,64.72
2023-03-21T20:49:07.717Z,64.24
2023-03-21T20:54:24.149Z,64.50
2023-03-21T20:56:52.172Z,64.49
2023-03-21T20:59:26.629Z,64.48
2023-03-21T21:01:57.191Z,64.54
2023-03-21T21:07:18.169Z,65.29
2023-03-21T21:09:46.978Z,65.28
2023-03-21T21:12:16.441Z,65.65
2023-03-21T21:14:45.549Z,66.02
2023-03-21T21:20:12.305Z,66.05
2023-03-21T21:22:42.851Z,66.33
2023-03-21T21:25:14.308Z,66.20
2023-03-21T21:27:52.632Z,66.25
2023-03-21T21:30:21.207Z,66.28
2023-03-21T21:32:49.538Z,66.90
2023-03-21T21:35:20.559Z,66.93
2023-03-21T21:37:48.876Z,66.94
2023-03-21T21:40:20.516Z,66.79
2023-03-21T21:42:48.760Z,66.34
2023-03-21T21:45:16.981Z,66.92
2023-03-21T21:47:45.909Z,66.35
2023-03-21T21:50:14.434Z,65.78
2023-03-21T21:52:52.481Z,65.43
2023-03-21T21:55:20.528Z,64.88
2023-03-21T21:57:50.225Z,64.01
2023-03-21T22:00:20.265Z,63.96
2023-03-21T22:02:48.284Z,62.53
2023-03-21T22:05:16.508Z,62.99
2023-03-21T22:07:46.525Z,62.88
2023-03-21T22:10:14.709Z,63.22
2023-03-21T22:12:42.742Z,63.08
2023-03-21T22:15:12.191Z,63.68
2023-03-21T22:17:40.683Z,63.40
2023-03-21T22:20:12.086Z,64.23
2023-03-21T22:22:40.380Z,64.66
2023-03-21T22:25:12.762Z,64.43
2023-03-21T22:27:41.071Z,64.57
2023-03-21T22:30:13.730Z,64.68
2023-03-21T22:32:42.611Z,65.32
2023-03-21T22:35:11.590Z,65.02
2023-03-21T22:37:41.949Z,64.66
2023-03-21T22:40:13.746Z,65.03
2023-03-21T22:42:42.398Z,64.10
2023-03-21T22:45:12.328Z,64.73
2023-03-21T22:47:40.774Z,64.27
2023-03-21T22:50:09.825Z,64.93
2023-03-21T22:52:37.765Z,62.92
2023-03-21T22:55:07.076Z,63.06
2023-03-21T22:57:36.397Z,62.73
2023-03-21T23:00:13.052Z,62.57
2023-03-21T23:02:41.530Z,62.41
2023-03-21T23:05:09.779Z,63.39
2023-03-21T23:07:37.743Z,63.57
2023-03-21T23:10:06.313Z,63.53
2023-03-21T23:12:34.344Z,63.60
2023-03-21T23:15:03.572Z,64.43
2023-03-21T23:17:33.790Z,64.72
2023-03-21T23:20:02.101Z,64.87
2023-03-21T23:22:31.394Z,65.09
2023-03-21T23:24:59.406Z,65.29
2023-03-21T23:27:27.688Z,65.05
2023-03-21T23:29:56.647Z,65.03
2023-03-21T23:32:25.963Z,64.62
2023-03-21T23:34:55.401Z,65.92
2023-03-21T23:37:24.924Z,65.62
2023-03-21T23:39:55.186Z,67.40
2023-03-21T23:42:23.151Z,66.47
2023-03-21T23:44:51.038Z,66.38
2023-03-21T23:47:18.943Z,67.43
2023-03-21T23:49:50.115Z,67.18
2023-03-21T23:52:18.147Z,66.81
2023-03-21T23:54:46.239Z,67.58
2023-03-21T23:57:14.166Z,66.83
2023-03-21T23:59:42.048Z,66.73
